createdAt,value
2023-03-29T02:36:35.755Z,84.90
2023-03-29T02:39:35.575Z,84.10
2023-03-29T02:42:06.419Z,85.90
2023-03-29T02:49:49.832Z,92.90
2023-03-29T02:52:22.545Z,90.30
2023-03-29T02:54:53.110Z,83.90
2023-03-29T02:59:49.128Z,84.60
2023-03-29T03:04:48.011Z,85.10
2023-03-29T03:12:23.763Z,89.80
2023-03-29T03:14:56.226Z,84.90
2023-03-29T03:17:25.675Z,85.00
2023-03-29T03:19:57.983Z,85.40
2023-03-29T03:22:30.479Z,86.10
2023-03-29T03:24:59.397Z,86.20
2023-03-29T03:27:35.218Z,84.80
2023-03-29T03:30:09.949Z,83.90
2023-03-29T03:35:38.700Z,83.10
2023-03-29T03:38:16.110Z,83.50
2023-03-29T03:40:44.747Z,83.10
2023-03-29T03:43:16.139Z,83.20
2023-03-29T03:45:47.728Z,83.00
2023-03-29T03:48:16.994Z,83.30
2023-03-29T03:50:57.501Z,83.20
2023-03-29T03:53:28.817Z,83.40
2023-03-29T03:56:02.535Z,83.40
2023-03-29T03:58:30.886Z,83.40
2023-03-29T04:01:00.470Z,83.70
2023-03-29T04:03:29.393Z,83.90
2023-03-29T04:06:00.254Z,83.50
2023-03-29T04:08:28.629Z,83.20
2023-03-29T04:10:58.766Z,83.00
2023-03-29T04:13:27.762Z,82.70
2023-03-29T04:16:01.498Z,82.50
2023-03-29T04:18:30.190Z,83.10
2023-03-29T04:20:59.240Z,82.50
2023-03-29T04:23:27.296Z,82.20
2023-03-29T04:25:59.544Z,82.20
2023-03-29T04:28:27.977Z,81.80
2023-03-29T04:30:56.865Z,82.10
2023-03-29T04:33:24.955Z,82.30
2023-03-29T04:35:53.140Z,82.50
2023-03-29T04:38:23.634Z,82.30
2023-03-29T04:40:52.493Z,82.30
2023-03-29T04:43:20.613Z,82.20
2023-03-29T04:48:18.030Z,82.50
2023-03-29T04:50:49.060Z,82.60
2023-03-29T04:53:17.551Z,82.10
2023-03-29T04:55:50.693Z,81.70
2023-03-29T04:58:22.113Z,81.60
2023-03-29T05:01:01.718Z,81.00
2023-03-29T05:03:30.468Z,80.30
2023-03-29T05:06:16.008Z,80.50
2023-03-29T05:08:48.658Z,78.60
2023-03-29T05:11:18.010Z,78.80
2023-03-29T05:13:46.896Z,79.20
2023-03-29T05:16:18.139Z,78.00
2023-03-29T05:18:46.326Z,76.60
2023-03-29T05:21:14.807Z,78.80
2023-03-29T05:23:43.280Z,78.20
2023-03-29T05:26:14.966Z,77.70
2023-03-29T05:28:44.113Z,77.40
2023-03-29T05:31:20.334Z,77.60
2023-03-29T05:33:49.298Z,77.80
2023-03-29T05:36:19.551Z,78.50
2023-03-29T05:38:48.735Z,78.30
2023-03-29T05:41:18.237Z,77.60
2023-03-29T05:43:53.034Z,77.60
2023-03-29T05:46:21.175Z,76.70
2023-03-29T05:48:52.747Z,77.00
2023-03-29T05:51:25.011Z,76.40
2023-03-29T05:53:53.891Z,76.80
2023-03-29T05:56:28.091Z,76.40
2023-03-29T05:58:59.164Z,76.60
2023-03-29T06:02:15.039Z,76.10
2023-03-29T06:04:46.162Z,76.30
2023-03-29T06:09:52.786Z,76.10
2023-03-29T06:12:22.104Z,75.30
2023-03-29T06:14:50.266Z,75.80
2023-03-29T06:17:21.999Z,76.20
2023-03-29T06:19:50.457Z,75.30
2023-03-29T06:22:19.138Z,76.70
2023-03-29T06:24:47.486Z,75.60
2023-03-29T06:27:16.147Z,78.00
2023-03-29T06:29:44.302Z,76.30
2023-03-29T06:32:12.955Z,76.50
2023-03-29T06:34:41.409Z,76.30
2023-03-29T06:38:00.437Z,77.00
2023-03-29T06:40:32.186Z,76.40
2023-03-29T06:43:01.100Z,77.70
2023-03-29T06:45:31.879Z,77.70
2023-03-29T06:48:00.360Z,78.10
2023-03-29T06:50:31.315Z,78.50
2023-03-29T07:05:43.050Z,75.90
2023-03-29T07:08:14.647Z,77.00
2023-03-29T07:10:49.690Z,77.80
2023-03-29T07:13:19.650Z,78.00
2023-03-29T07:15:49.839Z,78.70
2023-03-29T07:18:21.887Z,78.90
2023-03-29T07:20:50.663Z,80.30
2023-03-29T07:23:19.026Z,78.80
2023-03-29T07:25:48.157Z,79.60
2023-03-29T07:28:16.499Z,78.90
2023-03-29T07:30:44.793Z,80.40
2023-03-29T07:33:23.498Z,79.20
2023-03-29T07:35:52.384Z,79.60
2023-03-29T07:38:21.039Z,79.70
2023-03-29T07:40:49.256Z,80.50
2023-03-29T07:43:18.648Z,79.90
2023-03-29T07:45:47.135Z,80.10
2023-03-29T07:48:15.665Z,79.30
2023-03-29T07:50:44.407Z,80.30
2023-03-29T07:53:13.754Z,80.60
2023-03-29T07:55:55.185Z,79.90
2023-03-29T07:58:33.889Z,80.20
2023-03-29T08:01:02.262Z,80.00
2023-03-29T08:03:30.862Z,80.30
2023-03-29T08:06:02.331Z,80.50
2023-03-29T08:08:30.770Z,80.80
2023-03-29T08:10:59.340Z,80.80
2023-03-29T08:13:28.567Z,81.00
2023-03-29T08:15:57.640Z,81.70
2023-03-29T08:22:31.080Z,81.20
2023-03-29T08:25:00.054Z,80.10
2023-03-29T08:27:28.333Z,81.10
2023-03-29T08:29:57.428Z,79.30
2023-03-29T08:32:28.690Z,79.20
2023-03-29T08:34:56.931Z,79.40
2023-03-29T08:37:39.337Z,79.10
2023-03-29T08:40:18.896Z,78.50
2023-03-29T08:43:31.892Z,80.00
2023-03-29T08:46:10.869Z,79.20
2023-03-29T08:52:03.135Z,78.90
2023-03-29T08:54:47.736Z,78.70
2023-03-29T08:57:45.555Z,78.60
2023-03-29T09:00:40.463Z,78.50
2023-03-29T09:03:19.060Z,78.30
2023-03-29T09:05:59.912Z,77.90
2023-03-29T09:08:39.253Z,76.80
2023-03-29T09:11:29.602Z,77.10
2023-03-29T09:17:38.765Z,77.10
2023-03-29T09:20:30.757Z,77.20
2023-03-29T09:23:16.566Z,77.50
2023-03-29T09:26:25.542Z,77.90
2023-03-29T09:29:10.352Z,77.60
2023-03-29T09:31:44.390Z,77.90
2023-03-29T09:34:26.415Z,78.00
2023-03-29T09:37:29.390Z,78.50
2023-03-29T09:40:05.213Z,78.70
2023-03-29T09:42:41.068Z,78.90
2023-03-29T09:45:32.331Z,78.70
2023-03-29T09:48:25.758Z,78.70
2023-03-29T09:51:02.992Z,78.40
2023-03-29T09:53:50.765Z,79.00
2023-03-29T09:56:32.222Z,78.90
2023-03-29T09:59:00.427Z,79.40
2023-03-29T10:01:38.968Z,79.00
2023-03-29T10:04:13.991Z,79.60
2023-03-29T10:06:50.684Z,79.40
2023-03-29T10:09:22.234Z,79.40
2023-03-29T10:11:58.214Z,79.50
2023-03-29T10:14:54.033Z,79.60
2023-03-29T10:17:25.642Z,79.90
2023-03-29T10:19:58.539Z,80.00
2023-03-29T10:22:38.244Z,80.00
2023-03-29T10:25:14.784Z,80.40
2023-03-29T10:27:44.934Z,80.60
2023-03-29T10:30:35.717Z,80.70
2023-03-29T10:33:04.137Z,81.50
2023-03-29T10:35:41.909Z,83.00
2023-03-29T10:38:16.301Z,80.70
2023-03-29T10:40:48.539Z,80.30
2023-03-29T10:43:24.825Z,85.50
2023-03-29T10:45:57.825Z,82.10
2023-03-29T10:48:37.445Z,83.90
2023-03-29T10:51:09.575Z,82.40
2023-03-29T10:53:38.630Z,82.50
2023-03-29T10:56:34.243Z,82.10
2023-03-29T10:59:09.544Z,83.20
2023-03-29T11:01:51.448Z,83.80
2023-03-29T11:04:57.840Z,86.00
2023-03-29T11:07:29.196Z,85.00
2023-03-29T11:10:15.988Z,85.20
2023-03-29T11:13:02.383Z,85.40
2023-03-29T11:15:57.796Z,84.80
2023-03-29T11:18:46.158Z,84.60
2023-03-29T11:21:27.612Z,84.30
2023-03-29T11:23:55.624Z,84.70
2023-03-29T11:26:28.643Z,84.40
2023-03-29T11:29:07.498Z,85.60
2023-03-29T11:32:00.755Z,84.90
2023-03-29T11:34:50.021Z,84.10
2023-03-29T11:37:45.484Z,84.10
2023-03-29T11:40:36.313Z,84.50
2023-03-29T11:43:15.628Z,84.40
2023-03-29T11:46:27.507Z,83.90
2023-03-29T11:49:20.328Z,83.90
2023-03-29T11:52:09.668Z,84.30
2023-03-29T11:54:45.836Z,84.00
2023-03-29T11:57:43.546Z,84.70
2023-03-29T12:00:19.210Z,83.70
2023-03-29T12:02:53.446Z,84.30
2023-03-29T12:05:36.988Z,84.90
2023-03-29T12:08:10.178Z,84.60
2023-03-29T12:10:52.587Z,83.50
2023-03-29T12:13:32.570Z,84.20
2023-03-29T12:16:09.224Z,83.00
2023-03-29T12:18:59.389Z,83.50
2023-03-29T12:21:30.483Z,84.70
2023-03-29T12:23:58.770Z,84.60
2023-03-29T12:26:51.983Z,84.40
2023-03-29T12:29:41.772Z,84.50
2023-03-29T12:32:16.492Z,84.10
2023-03-29T12:35:05.988Z,84.70
2023-03-29T12:37:58.995Z,84.30
2023-03-29T12:40:28.884Z,85.90
2023-03-29T12:43:05.470Z,85.50
2023-03-29T12:45:40.296Z,85.70
2023-03-29T12:48:15.363Z,84.60
2023-03-29T12:51:03.904Z,84.80
2023-03-29T12:53:39.294Z,84.70
2023-03-29T12:56:09.457Z,84.50
2023-03-29T12:59:00.819Z,84.70
2023-03-29T13:01:44.637Z,84.10
2023-03-29T13:04:20.836Z,85.00
2023-03-29T13:07:04.215Z,85.00
2023-03-29T13:09:48.320Z,84.40
2023-03-29T13:12:16.223Z,85.40
2023-03-29T13:14:49.636Z,85.60
2023-03-29T13:17:31.504Z,85.30
2023-03-29T13:20:21.546Z,85.30
2023-03-29T13:22:56.276Z,84.50
2023-03-29T13:25:45.961Z,85.60
2023-03-29T13:28:17.395Z,86.00
2023-03-29T13:31:13.186Z,87.00
2023-03-29T13:34:27.310Z,86.20
2023-03-29T13:37:13.670Z,86.60
2023-03-29T13:39:51.149Z,86.70
2023-03-29T13:42:27.443Z,86.60
2023-03-29T13:45:11.182Z,86.90
2023-03-29T13:47:54.973Z,85.90
2023-03-29T13:50:39.773Z,86.50
2023-03-29T13:53:23.851Z,87.30
2023-03-29T13:55:55.331Z,86.90
2023-03-29T13:58:42.035Z,86.10
2023-03-29T14:01:33.207Z,85.70
2023-03-29T14:04:01.502Z,86.90
2023-03-29T14:06:34.407Z,87.10
2023-03-29T14:09:06.559Z,87.20
2023-03-29T14:11:34.847Z,87.50
2023-03-29T14:14:10.841Z,86.00
2023-03-29T14:16:41.111Z,87.30
2023-03-29T14:19:19.374Z,87.50
2023-03-29T14:21:49.642Z,87.10
2023-03-29T14:24:27.291Z,87.40
2023-03-29T14:26:55.817Z,86.60
2023-03-29T14:29:25.511Z,86.80
2023-03-29T14:31:53.767Z,87.50
2023-03-29T14:34:23.487Z,87.80
2023-03-29T14:36:55.301Z,88.70
2023-03-29T14:39:24.307Z,88.20
2023-03-29T14:41:59.933Z,88.50
2023-03-29T14:44:35.843Z,88.30
2023-03-29T14:47:04.153Z,88.00
2023-03-29T14:49:32.888Z,87.10
2023-03-29T14:52:01.111Z,88.10
2023-03-29T14:54:32.961Z,87.50
2023-03-29T14:57:04.174Z,88.30
2023-03-29T14:59:42.752Z,88.60
2023-03-29T15:02:26.197Z,88.80
2023-03-29T15:05:03.634Z,89.80
2023-03-29T15:07:36.813Z,89.80
2023-03-29T15:10:06.685Z,90.10
2023-03-29T15:15:04.462Z,89.90
2023-03-29T15:20:27.576Z,89.30
2023-03-29T15:23:13.857Z,89.90
2023-03-29T15:25:52.120Z,89.30
2023-03-29T15:28:49.908Z,89.30
2023-03-29T15:31:20.947Z,89.80
2023-03-29T15:33:49.079Z,90.30
2023-03-29T15:41:15.628Z,89.90
2023-03-29T15:53:41.699Z,91.30
2023-03-29T15:58:39.421Z,99.00
2023-03-29T16:01:40.396Z,87.00
2023-03-29T16:04:17.439Z,86.10
2023-03-29T16:06:48.926Z,88.50
2023-03-29T16:11:47.463Z,91.70
2023-03-29T16:14:24.515Z,88.80
2023-03-29T16:26:54.755Z,84.20
2023-03-29T16:29:25.772Z,84.70
2023-03-29T16:31:54.413Z,84.80
2023-03-29T16:34:23.747Z,84.80
2023-03-29T16:36:53.260Z,84.90
2023-03-29T16:49:26.765Z,89.00
2023-03-29T16:51:54.737Z,86.80
2023-03-29T16:56:57.892Z,97.40
2023-03-29T17:14:26.746Z,91.10
2023-03-29T17:16:55.093Z,91.00
2023-03-29T17:19:24.044Z,90.70
2023-03-29T17:21:52.144Z,90.60
2023-03-29T17:24:20.036Z,90.50
2023-03-29T17:26:48.063Z,90.70
2023-03-29T17:29:15.992Z,90.90
2023-03-29T17:31:48.060Z,89.30
2023-03-29T17:34:17.603Z,88.40
2023-03-29T17:36:46.425Z,90.20
2023-03-29T17:39:15.579Z,90.00
2023-03-29T17:41:43.628Z,89.90
2023-03-29T17:44:12.410Z,90.20
2023-03-29T17:46:40.628Z,89.90
2023-03-29T17:49:08.592Z,89.60
2023-03-29T17:51:36.518Z,89.80
2023-03-29T17:54:04.600Z,89.30
2023-03-29T17:56:32.793Z,88.90
2023-03-29T17:59:01.214Z,87.90
2023-03-29T18:01:29.559Z,90.60
2023-03-29T18:03:57.544Z,91.00
2023-03-29T18:06:25.742Z,91.30
2023-03-29T18:08:53.701Z,91.30
2023-03-29T18:11:24.128Z,91.10
2023-03-29T18:13:53.558Z,91.50
2023-03-29T18:16:22.781Z,91.40
2023-03-29T18:18:51.269Z,91.70
2023-03-29T18:21:19.362Z,91.80
2023-03-29T18:23:49.605Z,91.70
2023-03-29T18:26:17.665Z,91.80
2023-03-29T18:28:47.402Z,91.70
2023-03-29T18:31:17.235Z,91.80
2023-03-29T18:33:45.193Z,91.40
2023-03-29T18:36:13.630Z,91.90
2023-03-29T18:38:44.018Z,92.20
2023-03-29T18:41:14.200Z,91.80
2023-03-29T18:43:43.261Z,91.30
2023-03-29T18:46:11.510Z,91.90
2023-03-29T18:48:39.674Z,92.10
2023-03-29T18:51:10.396Z,91.90
2023-03-29T18:53:41.804Z,91.90
2023-03-29T18:56:09.728Z,92.00
2023-03-29T18:58:37.736Z,92.40
2023-03-29T19:01:07.273Z,92.60
2023-03-29T19:03:35.866Z,92.50
2023-03-29T19:06:04.459Z,91.90
2023-03-29T19:08:33.961Z,92.70
2023-03-29T19:11:04.627Z,92.40
2023-03-29T19:13:32.818Z,92.50
2023-03-29T19:16:01.420Z,92.40
2023-03-29T19:18:29.606Z,92.20
2023-03-29T19:20:57.592Z,92.40
2023-03-29T19:23:28.576Z,92.70
2023-03-29T19:26:03.972Z,92.80
2023-03-29T19:28:33.749Z,93.00
2023-03-29T19:31:03.177Z,92.50
2023-03-29T19:33:31.555Z,92.50
2023-03-29T19:35:59.474Z,92.50
2023-03-29T19:38:27.427Z,92.60
2023-03-29T19:40:55.387Z,92.60
2023-03-29T19:43:25.062Z,92.40
2023-03-29T19:45:53.006Z,92.20
2023-03-29T19:48:23.673Z,92.20
2023-03-29T19:50:52.251Z,92.60
2023-03-29T19:53:20.180Z,92.70
2023-03-29T19:55:49.008Z,92.50
2023-03-29T19:58:16.932Z,93.10
2023-03-29T20:08:12.786Z,91.10
2023-03-29T20:10:40.793Z,91.40
2023-03-29T20:40:31.842Z,91.00
2023-03-29T20:42:59.797Z,91.10
2023-03-29T20:45:27.825Z,91.70
2023-03-29T20:48:02.315Z,92.50
2023-03-29T20:58:03.196Z,92.70
2023-03-29T21:22:57.920Z,92.70
2023-03-29T21:25:25.848Z,93.10
2023-03-29T21:35:21.176Z,93.30
2023-03-29T21:37:49.080Z,93.20
2023-03-29T21:40:17.043Z,93.20
2023-03-29T21:42:45.120Z,93.20
2023-03-29T21:45:13.068Z,93.30
2023-03-29T21:47:41.919Z,93.10
2023-03-29T21:50:10.885Z,93.10
2023-03-29T21:52:39.029Z,93.20
2023-03-29T21:55:07.932Z,93.10
2023-03-29T21:57:36.975Z,93.20
2023-03-29T22:00:11.474Z,92.60
2023-03-29T22:02:40.374Z,92.60
2023-03-29T22:05:08.708Z,93.20
2023-03-29T22:07:38.902Z,92.70
2023-03-29T22:10:08.765Z,92.60
2023-03-29T22:12:38.443Z,92.90
2023-03-29T22:15:09.285Z,92.40
2023-03-29T22:17:37.387Z,93.00
2023-03-29T22:20:12.881Z,93.20
2023-03-29T22:22:45.199Z,93.40
2023-03-29T22:25:13.770Z,93.70
2023-03-29T22:27:42.791Z,93.70
2023-03-29T22:30:12.031Z,93.60
2023-03-29T22:32:40.069Z,93.50
2023-03-29T22:35:08.777Z,93.10
2023-03-29T22:37:45.452Z,93.50
2023-03-29T22:40:14.151Z,93.60
2023-03-29T22:42:42.150Z,93.20
2023-03-29T22:45:10.640Z,92.80
2023-03-29T22:47:38.655Z,93.20
2023-03-29T22:50:07.521Z,93.20
2023-03-29T22:52:35.549Z,93.10
2023-03-29T22:55:03.530Z,93.20
2023-03-29T22:57:31.778Z,93.30
2023-03-29T22:59:59.665Z,93.20
2023-03-29T23:02:28.501Z,93.40
2023-03-29T23:04:56.589Z,93.40
2023-03-29T23:07:24.511Z,93.50
2023-03-29T23:09:52.485Z,93.00
2023-03-29T23:12:20.618Z,92.90
2023-03-29T23:14:48.510Z,93.00
2023-03-29T23:17:19.401Z,92.90
2023-03-29T23:19:48.118Z,92.20
2023-03-29T23:22:16.184Z,92.60
2023-03-29T23:24:46.860Z,92.70
2023-03-29T23:27:15.646Z,92.70
2023-03-29T23:29:45.382Z,93.00
2023-03-29T23:32:15.320Z,93.10
2023-03-29T23:34:43.409Z,93.30
2023-03-29T23:37:11.368Z,93.40
2023-03-29T23:39:39.765Z,93.10
2023-03-29T23:42:08.028Z,92.70
2023-03-29T23:44:35.981Z,92.90
2023-03-29T23:47:04.004Z,93.70
2023-03-29T23:49:32.100Z,93.70
2023-03-29T23:52:00.340Z,93.70
2023-03-29T23:54:29.342Z,93.60
2023-03-29T23:56:57.628Z,93.50
2023-03-29T23:59:29.334Z,93.50
